Time;durP1;ratioP1;P1;durP2;ratioP2;P2;SDS_P1;SDS_P2;PMS_P1;PMS_P2;Temp;Humidity;BMP_temperature;BMP_pressure;BME280_temperature;BME280_humidity;BME280_pressure;Samples;Min_cycle;Max_cycle;Signal;HPM_P1;HPM_P2
2023/09/15 00:01:00;;;;;;;6.33;5.00;;;12.80;99.90;;;;;;2048814;28;20310;-82
2023/09/15 00:02:03;;;;;;;7.73;5.33;;;12.80;99.90;;;;;;2064538;28;20247;-82
2023/09/15 00:03:04;;;;;;;7.15;5.43;;;12.70;99.90;;;;;;2062623;28;20175;-81
2023/09/15 00:04:06;;;;;;;6.63;5.03;;;12.80;99.90;;;;;;2065538;28;20189;-81
2023/09/15 00:05:10;;;;;;;6.15;5.22;;;12.80;99.90;;;;;;2064122;28;20211;-83
2023/09/15 00:06:10;;;;;;;6.07;5.47;;;12.80;99.90;;;;;;2057685;28;20742;-83
2023/09/15 00:07:14;;;;;;;6.10;5.20;;;12.80;99.90;;;;;;2065749;28;20234;-83
2023/09/15 00:08:15;;;;;;;7.20;5.75;;;12.80;99.90;;;;;;2058095;28;20218;-83
2023/09/15 00:09:18;;;;;;;6.00;5.40;;;12.80;99.90;;;;;;2066053;28;20284;-83
2023/09/15 00:10:19;;;;;;;6.78;5.10;;;12.80;99.90;;;;;;2074042;28;20192;-83
2023/09/15 00:11:22;;;;;;;6.30;4.82;;;12.80;99.90;;;;;;2073515;28;20201;-82
2023/09/15 00:12:23;;;;;;;5.28;4.70;;;12.90;99.90;;;;;;2073738;28;20233;-82
2023/09/15 00:13:24;;;;;;;4.95;4.55;;;12.80;99.90;;;;;;2062683;28;20790;-82
2023/09/15 00:14:25;;;;;;;5.70;5.03;;;12.80;99.90;;;;;;2065112;28;20321;-83
2023/09/15 00:15:26;;;;;;;5.23;4.73;;;12.70;99.90;;;;;;2062197;28;20292;-83
2023/09/15 00:16:26;;;;;;;6.37;5.17;;;12.70;99.90;;;;;;2065015;28;20236;-82
2023/09/15 00:17:27;;;;;;;6.43;5.30;;;12.70;99.90;;;;;;2065896;28;20233;-83
2023/09/15 00:18:28;;;;;;;5.33;4.60;;;12.70;99.90;;;;;;2065304;28;20238;-81
2023/09/15 00:19:29;;;;;;;5.88;5.05;;;12.60;99.90;;;;;;2063683;28;20238;-83
2023/09/15 00:20:30;;;;;;;7.03;5.17;;;12.70;99.90;;;;;;2049409;28;20235;-83
2023/09/15 00:21:31;;;;;;;6.90;5.03;;;12.70;99.90;;;;;;2065280;28;20218;-83
2023/09/15 00:22:33;;;;;;;6.38;5.28;;;12.70;99.90;;;;;;2057378;28;20244;-82
2023/09/15 00:23:35;;;;;;;5.70;5.10;;;12.70;99.90;;;;;;2057668;28;20744;-83
2023/09/15 00:24:35;;;;;;;5.68;5.15;;;12.70;99.90;;;;;;2057335;28;20218;-83
2023/09/15 00:25:37;;;;;;;5.70;4.60;;;12.70;99.90;;;;;;2073370;28;20217;-83
2023/09/15 00:26:38;;;;;;;6.30;4.90;;;12.70;99.90;;;;;;2065137;28;20226;-83
2023/09/15 00:27:39;;;;;;;6.57;5.75;;;12.60;99.90;;;;;;2061568;28;20230;-83
2023/09/15 00:28:40;;;;;;;5.47;4.93;;;12.70;99.90;;;;;;2056625;28;20261;-82
2023/09/15 00:29:41;;;;;;;5.55;4.97;;;12.60;99.90;;;;;;2065324;28;20222;-83
2023/09/15 00:30:42;;;;;;;5.83;5.23;;;12.50;99.90;;;;;;2065218;28;20244;-83
2023/09/15 00:31:42;;;;;;;5.77;5.17;;;12.60;99.90;;;;;;2056901;28;20227;-82
2023/09/15 00:32:48;;;;;;;5.40;4.90;;;12.60;99.90;;;;;;2056456;28;20234;-83
2023/09/15 00:33:49;;;;;;;5.38;4.88;;;12.50;99.90;;;;;;2065465;28;20222;-82
2023/09/15 00:34:51;;;;;;;5.45;4.75;;;12.50;99.90;;;;;;2058922;28;20217;-83
2023/09/15 00:35:52;;;;;;;5.20;4.70;;;12.50;99.90;;;;;;2049629;28;20223;-82
2023/09/15 00:36:52;;;;;;;7.47;5.13;;;12.50;99.90;;;;;;2064652;28;20218;-82
2023/09/15 00:37:55;;;;;;;6.27;5.10;;;12.50;99.90;;;;;;2057510;28;20314;-83
2023/09/15 00:38:55;;;;;;;6.05;5.55;;;12.50;99.90;;;;;;2064715;28;20352;-82
2023/09/15 00:39:57;;;;;;;5.50;5.00;;;12.50;99.90;;;;;;2063833;28;20222;-81
2023/09/15 00:40:58;;;;;;;5.72;4.97;;;12.40;99.90;;;;;;2064278;28;20227;-82
2023/09/15 00:41:59;;;;;;;5.70;5.20;;;12.40;99.90;;;;;;2064329;28;20218;-82
2023/09/15 00:42:59;;;;;;;10.47;5.33;;;12.50;99.90;;;;;;2072995;28;20229;-83
2023/09/15 00:44:00;;;;;;;7.33;5.43;;;12.40;99.90;;;;;;2064362;28;20226;-82
2023/09/15 00:45:04;;;;;;;6.93;5.30;;;12.40;99.90;;;;;;2063208;28;20222;-83
2023/09/15 00:46:05;;;;;;;6.30;5.70;;;12.40;99.90;;;;;;2055893;28;20654;-83
2023/09/15 00:47:06;;;;;;;5.63;4.65;;;12.30;99.90;;;;;;2046534;28;20184;-82
2023/09/15 00:48:08;;;;;;;6.93;4.53;;;12.50;99.90;;;;;;2058618;28;20258;-83
2023/09/15 00:49:09;;;;;;;6.07;5.05;;;12.40;99.90;;;;;;2065197;28;20190;-82
2023/09/15 00:50:14;;;;;;;5.40;4.90;;;12.40;99.90;;;;;;2056548;28;20269;-82
2023/09/15 00:51:15;;;;;;;5.47;4.97;;;12.50;99.90;;;;;;2048983;28;20184;-81
2023/09/15 00:52:16;;;;;;;6.57;5.20;;;12.40;99.90;;;;;;2057134;28;20210;-82
2023/09/15 00:53:19;;;;;;;7.30;4.53;;;12.40;99.90;;;;;;2065333;28;20265;-83
2023/09/15 00:54:21;;;;;;;5.82;4.88;;;12.40;99.90;;;;;;2065684;28;20190;-84
2023/09/15 00:55:24;;;;;;;7.70;5.50;;;12.40;99.90;;;;;;2058876;28;20329;-83
2023/09/15 00:56:26;;;;;;;6.50;5.70;;;12.40;99.90;;;;;;2066199;28;20229;-83
2023/09/15 00:57:27;;;;;;;6.18;5.25;;;12.30;99.90;;;;;;2058910;28;20243;-83
2023/09/15 00:58:28;;;;;;;6.40;5.75;;;12.30;99.90;;;;;;2057334;28;20293;-81
2023/09/15 00:59:29;;;;;;;6.03;5.40;;;12.40;99.90;;;;;;2073048;28;20313;-82
2023/09/15 01:00:30;;;;;;;7.25;5.07;;;12.30;99.90;;;;;;2066158;28;20234;-82
2023/09/15 01:01:31;;;;;;;5.57;5.07;;;12.30;99.90;;;;;;2065210;28;20253;-82
2023/09/15 01:02:32;;;;;;;7.40;5.23;;;12.30;99.90;;;;;;2064191;28;20218;-83
2023/09/15 01:03:37;;;;;;;6.00;5.40;;;12.30;99.90;;;;;;2060181;28;20235;-82
2023/09/15 01:04:40;;;;;;;5.85;5.28;;;12.20;99.90;;;;;;2071506;28;20222;-82
2023/09/15 01:05:42;;;;;;;6.05;5.50;;;12.30;99.90;;;;;;2065329;28;20227;-80
2023/09/15 01:06:45;;;;;;;6.03;5.43;;;12.30;99.90;;;;;;2065100;28;20231;-83
2023/09/15 01:07:53;;;;;;;6.38;5.68;;;12.30;99.90;;;;;;2073090;28;20282;-81
2023/09/15 01:08:55;;;;;;;6.72;5.35;;;12.30;99.90;;;;;;2073756;28;20226;-81
2023/09/15 01:09:55;;;;;;;6.00;5.18;;;12.30;99.90;;;;;;2064986;28;20264;-81
2023/09/15 01:11:01;;;;;;;6.10;5.33;;;12.20;99.90;;;;;;2072954;28;20210;-81
2023/09/15 01:12:04;;;;;;;6.47;5.18;;;12.20;99.90;;;;;;2068893;28;20356;-82
2023/09/15 01:13:06;;;;;;;5.78;4.93;;;12.30;99.90;;;;;;2072138;28;20186;-81
2023/09/15 01:14:07;;;;;;;6.47;5.40;;;12.20;99.90;;;;;;2072973;28;20170;-80
2023/09/15 01:15:08;;;;;;;7.77;5.37;;;12.20;99.90;;;;;;2073294;28;20198;-82
2023/09/15 01:16:19;;;;;;;6.03;5.47;;;12.20;99.90;;;;;;2065187;28;20187;-81
2023/09/15 01:17:26;;;;;;;6.22;4.72;;;12.20;99.90;;;;;;2068294;28;20179;-81
2023/09/15 01:19:09;;;;;;;5.85;4.80;;;12.10;99.90;;;;;;2074047;28;20293;-81
2023/09/15 01:20:21;;;;;;;5.50;4.93;;;12.20;99.90;;;;;;2083591;28;20223;-81
2023/09/15 01:22:04;;;;;;;6.40;5.35;;;12.10;99.90;;;;;;2073518;28;20230;-81
2023/09/15 01:23:36;;;;;;;6.20;5.55;;;12.10;99.90;;;;;;2078220;28;20248;-81
2023/09/15 01:25:05;;;;;;;6.43;5.60;;;12.00;99.90;;;;;;2080892;28;20229;-81
2023/09/15 01:26:59;;;;;;;6.38;5.32;;;12.10;99.90;;;;;;2080508;28;20241;-81
2023/09/15 01:28:41;;;;;;;6.85;5.25;;;12.00;99.90;;;;;;2080879;28;20302;-81
2023/09/15 01:29:47;;;;;;;8.57;6.03;;;11.90;99.90;;;;;;2075143;28;20269;-81
2023/09/15 01:30:51;;;;;;;8.52;6.40;;;12.00;99.90;;;;;;2073799;28;20214;-83
2023/09/15 01:31:53;;;;;;;6.47;5.53;;;11.90;99.90;;;;;;2072017;28;20218;-83
2023/09/15 01:32:57;;;;;;;7.93;5.78;;;12.00;99.90;;;;;;2074264;28;20221;-82
2023/09/15 01:33:58;;;;;;;6.25;5.60;;;11.90;99.90;;;;;;2081221;28;20221;-80
2023/09/15 01:35:05;;;;;;;6.73;6.03;;;11.90;99.90;;;;;;2077595;28;20218;-81
2023/09/15 01:36:06;;;;;;;7.22;5.57;;;11.90;99.90;;;;;;2072204;28;20230;-81
2023/09/15 01:37:07;;;;;;;8.57;6.27;;;11.90;99.90;;;;;;2073529;28;20198;-82
2023/09/15 01:38:07;;;;;;;7.50;5.80;;;11.90;99.90;;;;;;2073317;28;20185;-81
2023/09/15 01:39:08;;;;;;;7.60;5.80;;;12.00;99.90;;;;;;2080731;28;20649;-82
2023/09/15 01:40:10;;;;;;;7.97;6.00;;;11.90;99.90;;;;;;2072404;28;20209;-83
2023/09/15 01:41:10;;;;;;;7.38;6.10;;;11.80;99.90;;;;;;2072744;28;20186;-82
2023/09/15 01:42:11;;;;;;;8.43;5.83;;;11.80;99.90;;;;;;2073027;28;20174;-82
2023/09/15 01:43:13;;;;;;;8.33;6.33;;;12.00;99.90;;;;;;2072685;28;20190;-81
2023/09/15 01:44:13;;;;;;;6.43;5.82;;;11.90;99.90;;;;;;2072777;28;20172;-82
2023/09/15 01:45:14;;;;;;;6.73;5.87;;;11.90;99.90;;;;;;2080674;28;20197;-81
2023/09/15 01:46:15;;;;;;;6.60;5.90;;;11.80;99.90;;;;;;2081259;28;20185;-80
2023/09/15 01:47:19;;;;;;;7.73;5.67;;;11.90;99.90;;;;;;2081102;28;20232;-80
2023/09/15 01:48:22;;;;;;;7.30;5.70;;;11.80;99.90;;;;;;2081068;28;20181;-81
2023/09/15 01:49:25;;;;;;;7.78;5.70;;;11.90;99.90;;;;;;2067476;28;20285;-79
2023/09/15 01:50:28;;;;;;;6.53;5.80;;;11.90;99.90;;;;;;2067267;28;20249;-80
2023/09/15 01:51:30;;;;;;;6.07;5.13;;;11.90;99.90;;;;;;2073192;28;20229;-80
2023/09/15 01:52:31;;;;;;;5.72;5.10;;;11.90;99.90;;;;;;2071330;28;20265;-80
2023/09/15 01:53:35;;;;;;;7.53;5.22;;;11.90;99.90;;;;;;2073022;28;20230;-81
2023/09/15 01:54:36;;;;;;;6.22;5.40;;;11.90;99.90;;;;;;2081235;28;20213;-81
2023/09/15 01:55:37;;;;;;;6.93;5.83;;;11.90;99.90;;;;;;2081202;28;20243;-81
2023/09/15 01:56:38;;;;;;;8.35;6.10;;;11.90;99.90;;;;;;2076063;28;20596;-82
2023/09/15 01:57:39;;;;;;;6.60;5.37;;;11.90;99.90;;;;;;2065572;28;20229;-83
2023/09/15 01:58:39;;;;;;;7.83;4.93;;;11.90;99.90;;;;;;2063468;28;20316;-81
2023/09/15 01:59:40;;;;;;;6.80;6.10;;;11.90;99.90;;;;;;2070768;28;20231;-81
2023/09/15 02:00:41;;;;;;;6.20;5.60;;;11.80;99.90;;;;;;2055148;28;20218;-83
2023/09/15 02:01:42;;;;;;;7.07;6.00;;;11.80;99.90;;;;;;2063541;28;20237;-83
2023/09/15 02:02:42;;;;;;;7.95;5.72;;;11.90;99.90;;;;;;2056563;28;20237;-81
2023/09/15 02:03:43;;;;;;;7.03;6.33;;;11.80;99.90;;;;;;2063098;28;20318;-82
2023/09/15 02:04:44;;;;;;;7.20;6.50;;;11.80;99.90;;;;;;2073637;28;20280;-82
2023/09/15 02:05:45;;;;;;;6.47;5.87;;;11.80;99.90;;;;;;2056374;28;20238;-82
2023/09/15 02:06:45;;;;;;;7.50;6.33;;;11.70;99.90;;;;;;2057018;28;20222;-82
2023/09/15 02:07:46;;;;;;;8.63;5.57;;;11.80;99.90;;;;;;2056866;28;20233;-82
2023/09/15 02:08:47;;;;;;;7.23;6.27;;;11.80;99.90;;;;;;2055786;28;20227;-82
2023/09/15 02:09:47;;;;;;;6.03;5.43;;;11.70;99.90;;;;;;2056710;28;20237;-83
2023/09/15 02:10:48;;;;;;;6.47;5.43;;;11.70;99.90;;;;;;2064850;28;20225;-82
2023/09/15 02:11:49;;;;;;;5.93;5.20;;;11.70;99.90;;;;;;2048137;28;20223;-82
2023/09/15 02:12:50;;;;;;;5.33;4.67;;;11.70;99.90;;;;;;2056323;28;20277;-82
2023/09/15 02:13:50;;;;;;;6.47;4.90;;;11.70;99.90;;;;;;2064016;28;20237;-82
2023/09/15 02:14:51;;;;;;;5.80;4.83;;;11.70;99.90;;;;;;2064264;28;20309;-83
2023/09/15 02:15:53;;;;;;;6.33;5.73;;;11.70;99.90;;;;;;2072147;28;20213;-81
2023/09/15 02:16:54;;;;;;;7.00;6.00;;;11.80;99.90;;;;;;2079927;28;20302;-81
2023/09/15 02:17:58;;;;;;;6.90;6.10;;;11.70;99.90;;;;;;2071344;28;20279;-83
2023/09/15 02:19:00;;;;;;;8.35;5.72;;;11.70;99.90;;;;;;2063394;28;20226;-82
2023/09/15 02:20:03;;;;;;;6.50;5.70;;;11.80;99.90;;;;;;2048683;28;20726;-82
2023/09/15 02:21:04;;;;;;;6.47;5.80;;;11.80;99.90;;;;;;2055161;28;20250;-82
2023/09/15 02:22:04;;;;;;;6.37;5.33;;;11.80;99.90;;;;;;2063574;28;20189;-81
2023/09/15 02:23:05;;;;;;;6.07;5.47;;;11.80;99.90;;;;;;2063993;28;20794;-83
2023/09/15 02:24:06;;;;;;;7.90;5.50;;;11.80;99.90;;;;;;2063543;28;20281;-83
2023/09/15 02:25:09;;;;;;;5.50;5.00;;;11.80;99.90;;;;;;2063883;28;20182;-83
2023/09/15 02:26:09;;;;;;;5.40;4.72;;;11.70;99.90;;;;;;2063852;28;20245;-82
2023/09/15 02:27:10;;;;;;;6.10;5.50;;;11.70;99.90;;;;;;2048088;28;20180;-82
2023/09/15 02:28:11;;;;;;;6.83;5.70;;;11.70;99.90;;;;;;2054294;28;20189;-82
2023/09/15 02:29:13;;;;;;;5.90;5.30;;;11.70;99.90;;;;;;2050429;28;20195;-83
2023/09/15 02:30:13;;;;;;;7.95;6.88;;;11.70;99.90;;;;;;2064031;28;20569;-83
2023/09/15 02:31:14;;;;;;;7.20;6.20;;;11.70;99.90;;;;;;2054498;28;20194;-82
2023/09/15 02:32:15;;;;;;;8.73;6.50;;;11.70;99.90;;;;;;2054383;28;20226;-82
2023/09/15 02:33:15;;;;;;;8.17;6.10;;;11.70;99.90;;;;;;2055402;28;20195;-83
2023/09/15 02:34:16;;;;;;;6.43;5.73;;;11.70;99.90;;;;;;2063017;28;20278;-82
2023/09/15 02:35:19;;;;;;;6.40;5.47;;;11.70;99.90;;;;;;2071132;28;20259;-83
2023/09/15 02:36:21;;;;;;;5.50;4.97;;;11.70;99.90;;;;;;2063498;28;20217;-83
2023/09/15 02:37:21;;;;;;;6.80;5.03;;;11.60;99.90;;;;;;2055041;28;20721;-83
2023/09/15 02:38:22;;;;;;;5.63;5.10;;;11.60;99.90;;;;;;2057904;28;20230;-83
2023/09/15 02:39:23;;;;;;;6.17;5.50;;;11.60;99.90;;;;;;2054064;28;20227;-82
2023/09/15 02:40:24;;;;;;;6.28;4.93;;;11.60;99.90;;;;;;2055846;28;20237;-82
2023/09/15 02:41:25;;;;;;;5.47;4.80;;;11.60;99.90;;;;;;2049635;28;20246;-82
2023/09/15 02:42:26;;;;;;;6.97;5.57;;;11.50;99.90;;;;;;2063510;28;20230;-82
2023/09/15 02:43:27;;;;;;;6.00;5.40;;;11.60;99.90;;;;;;2063189;28;20722;-83
2023/09/15 02:44:29;;;;;;;9.07;6.07;;;11.60;99.90;;;;;;2063547;28;20309;-83
2023/09/15 02:45:37;;;;;;;6.50;5.43;;;11.60;99.90;;;;;;2066514;28;20230;-82
2023/09/15 02:46:38;;;;;;;6.13;5.53;;;11.60;99.90;;;;;;2067613;28;20257;-81
2023/09/15 02:47:38;;;;;;;6.20;5.67;;;11.50;99.90;;;;;;2070692;28;20214;-81
2023/09/15 02:48:41;;;;;;;6.97;5.70;;;11.50;99.90;;;;;;2070189;28;20344;-81
2023/09/15 02:49:42;;;;;;;5.93;5.35;;;11.40;99.90;;;;;;2059854;28;20230;-83
2023/09/15 02:50:43;;;;;;;6.30;5.70;;;11.40;99.90;;;;;;2055469;28;20711;-83
2023/09/15 02:51:44;;;;;;;6.75;5.25;;;11.50;99.90;;;;;;2063120;28;20233;-83
2023/09/15 02:52:45;;;;;;;5.80;5.30;;;11.50;99.90;;;;;;2071830;28;20221;-83
2023/09/15 02:53:45;;;;;;;7.30;6.00;;;11.50;99.90;;;;;;2079484;28;20228;-82
2023/09/15 02:54:48;;;;;;;6.77;5.37;;;11.50;99.90;;;;;;2070916;28;20221;-83
2023/09/15 02:56:00;;;;;;;5.90;5.25;;;11.60;99.90;;;;;;2062839;28;20253;-83
2023/09/15 02:57:08;;;;;;;5.50;5.00;;;11.60;99.90;;;;;;2062869;28;20222;-82
2023/09/15 02:58:09;;;;;;;5.57;4.93;;;11.50;99.90;;;;;;2056338;28;20608;-83
2023/09/15 02:59:10;;;;;;;7.00;5.57;;;11.60;99.90;;;;;;2061088;28;20194;-83
2023/09/15 03:00:13;;;;;;;5.50;5.00;;;11.60;99.90;;;;;;2071567;28;20573;-82
2023/09/15 03:01:15;;;;;;;6.97;6.07;;;11.50;99.90;;;;;;2059230;28;20309;-82
2023/09/15 03:02:16;;;;;;;6.40;5.68;;;11.50;99.90;;;;;;2052207;28;20192;-83
2023/09/15 03:03:17;;;;;;;6.60;5.87;;;11.50;99.90;;;;;;2063455;28;20238;-82
2023/09/15 03:04:19;;;;;;;6.20;5.10;;;11.50;99.90;;;;;;2072395;28;20587;-83
2023/09/15 03:05:22;;;;;;;6.80;5.53;;;11.50;99.90;;;;;;2065288;28;20209;-82
2023/09/15 03:06:23;;;;;;;7.38;5.88;;;11.50;99.90;;;;;;2057648;28;20695;-83
2023/09/15 03:07:24;;;;;;;9.93;7.07;;;11.40;99.90;;;;;;2050370;28;20223;-83
2023/09/15 03:08:25;;;;;;;7.13;6.13;;;11.30;99.90;;;;;;2056630;28;20310;-82
2023/09/15 03:09:26;;;;;;;7.73;6.40;;;11.40;99.90;;;;;;2060523;28;20632;-83
2023/09/15 03:10:26;;;;;;;8.27;6.53;;;11.40;99.90;;;;;;2059133;28;20223;-83
2023/09/15 03:11:27;;;;;;;9.07;6.50;;;11.40;99.90;;;;;;2063932;28;20250;-82
2023/09/15 03:12:28;;;;;;;6.70;6.00;;;11.40;99.90;;;;;;2064016;28;20308;-83
2023/09/15 03:13:28;;;;;;;8.77;6.90;;;11.40;99.90;;;;;;2064470;28;20226;-83
2023/09/15 03:14:29;;;;;;;8.17;6.30;;;11.40;99.90;;;;;;2062288;28;20233;-82
2023/09/15 03:15:30;;;;;;;6.38;5.78;;;11.50;99.90;;;;;;2073104;28;20237;-83
2023/09/15 03:16:32;;;;;;;6.53;5.80;;;11.40;99.90;;;;;;2072705;28;20229;-83
2023/09/15 03:17:37;;;;;;;5.87;5.10;;;11.50;99.90;;;;;;2072689;28;20233;-83
2023/09/15 03:18:38;;;;;;;6.75;5.82;;;11.50;99.90;;;;;;2072987;28;20713;-82
2023/09/15 03:19:38;;;;;;;7.23;6.07;;;11.50;99.90;;;;;;2064469;28;20225;-83
2023/09/15 03:20:39;;;;;;;5.73;5.10;;;11.50;99.90;;;;;;2072138;28;20861;-82
2023/09/15 03:21:40;;;;;;;6.37;5.77;;;11.50;99.90;;;;;;2069663;28;20225;-83
2023/09/15 03:22:42;;;;;;;5.80;5.03;;;11.50;99.90;;;;;;2064494;28;20707;-82
2023/09/15 03:23:43;;;;;;;7.32;5.90;;;11.40;99.90;;;;;;2072600;28;20525;-82
2023/09/15 03:24:44;;;;;;;7.00;6.30;;;11.40;99.90;;;;;;2056419;28;20768;-83
2023/09/15 03:25:44;;;;;;;5.40;4.90;;;11.50;99.90;;;;;;2064507;28;20476;-83
2023/09/15 03:26:46;;;;;;;6.50;5.50;;;11.40;99.90;;;;;;2072585;28;20232;-83
2023/09/15 03:27:47;;;;;;;7.22;5.65;;;11.40;99.90;;;;;;2064754;28;20239;-82
2023/09/15 03:28:48;;;;;;;5.37;4.87;;;11.40;99.90;;;;;;2055733;28;20301;-83
2023/09/15 03:29:48;;;;;;;5.60;5.00;;;11.40;99.90;;;;;;2064810;28;20234;-83
2023/09/15 03:30:49;;;;;;;7.27;5.47;;;11.30;99.90;;;;;;2056148;28;20235;-82
2023/09/15 03:31:50;;;;;;;6.30;5.70;;;11.30;99.90;;;;;;2064303;28;20317;-83
2023/09/15 03:32:50;;;;;;;6.90;5.93;;;11.20;99.90;;;;;;2064915;28;20917;-82
2023/09/15 03:33:51;;;;;;;8.57;5.90;;;11.30;99.90;;;;;;2065320;28;20222;-82
2023/09/15 03:34:52;;;;;;;8.17;5.97;;;11.30;99.90;;;;;;2064737;28;20285;-83
2023/09/15 03:35:53;;;;;;;7.20;6.23;;;11.30;99.90;;;;;;2064637;28;20226;-83
2023/09/15 03:36:53;;;;;;;7.33;6.17;;;11.20;99.90;;;;;;2064560;28;20226;-82
2023/09/15 03:37:54;;;;;;;5.87;5.27;;;11.20;99.90;;;;;;2056125;28;20218;-82
2023/09/15 03:38:56;;;;;;;6.63;5.93;;;11.20;99.90;;;;;;2072283;28;20224;-82
2023/09/15 03:39:57;;;;;;;7.30;5.78;;;11.20;99.90;;;;;;2064660;28;20221;-83
2023/09/15 03:40:59;;;;;;;6.30;5.27;;;11.20;99.90;;;;;;2056068;28;20632;-82
2023/09/15 03:41:59;;;;;;;6.93;5.45;;;11.20;99.90;;;;;;2048863;28;20725;-83
2023/09/15 03:43:00;;;;;;;6.57;5.27;;;11.20;99.90;;;;;;2056176;28;20247;-83
2023/09/15 03:44:01;;;;;;;7.40;5.67;;;11.20;99.90;;;;;;2056964;28;20218;-82
2023/09/15 03:45:02;;;;;;;8.20;6.23;;;11.20;99.90;;;;;;2054084;28;20270;-82
2023/09/15 03:46:03;;;;;;;6.95;5.70;;;11.20;99.90;;;;;;2048369;28;20661;-83
2023/09/15 03:47:04;;;;;;;6.97;6.13;;;11.20;99.90;;;;;;2061031;28;20194;-82
2023/09/15 03:48:05;;;;;;;6.73;5.57;;;11.10;99.90;;;;;;2048627;28;20191;-83
2023/09/15 03:49:06;;;;;;;6.13;5.50;;;11.20;99.90;;;;;;2054953;28;20182;-83
2023/09/15 03:50:09;;;;;;;7.60;5.87;;;11.10;99.90;;;;;;2063224;28;20190;-82
2023/09/15 03:51:10;;;;;;;5.70;5.10;;;11.20;99.90;;;;;;2065449;28;20510;-83
2023/09/15 03:52:10;;;;;;;5.70;5.10;;;11.20;99.90;;;;;;2064040;28;20542;-83
2023/09/15 03:53:11;;;;;;;6.67;5.47;;;11.20;99.90;;;;;;2068185;28;20593;-83
2023/09/15 03:54:12;;;;;;;5.80;5.20;;;11.20;99.90;;;;;;2067940;28;20192;-82
2023/09/15 03:55:13;;;;;;;6.00;5.30;;;11.20;99.90;;;;;;2064643;28;20690;-83
2023/09/15 03:56:14;;;;;;;7.20;5.75;;;11.30;99.90;;;;;;2058912;28;20265;-81
2023/09/15 03:57:14;;;;;;;6.47;5.57;;;11.30;99.90;;;;;;2072530;28;20245;-82
2023/09/15 03:58:15;;;;;;;6.90;5.83;;;11.30;99.90;;;;;;2065554;28;20576;-82
2023/09/15 03:59:16;;;;;;;5.97;5.30;;;11.30;99.90;;;;;;2057580;28;20250;-83
2023/09/15 04:00:19;;;;;;;6.53;5.50;;;11.20;99.90;;;;;;2065394;28;20190;-84
2023/09/15 04:01:23;;;;;;;6.82;5.32;;;11.20;99.90;;;;;;2065093;28;20189;-82
2023/09/15 04:02:24;;;;;;;5.75;5.00;;;11.20;99.90;;;;;;2063577;28;20230;-82
2023/09/15 04:03:25;;;;;;;6.90;4.60;;;11.10;99.90;;;;;;2056885;28;20227;-82
2023/09/15 04:04:26;;;;;;;5.55;5.05;;;11.10;99.90;;;;;;2063886;28;20226;-81
2023/09/15 04:05:27;;;;;;;5.97;4.50;;;11.10;99.90;;;;;;2069862;28;20662;-81
2023/09/15 04:06:28;;;;;;;6.47;5.63;;;11.20;99.90;;;;;;2063818;28;20276;-82
2023/09/15 04:07:29;;;;;;;6.10;5.50;;;11.20;99.90;;;;;;2064400;28;20230;-82
2023/09/15 04:08:29;;;;;;;6.33;5.73;;;11.10;99.90;;;;;;2064432;28;20226;-82
2023/09/15 04:09:30;;;;;;;6.80;5.40;;;11.10;99.90;;;;;;2072634;28;20230;-81
2023/09/15 04:10:31;;;;;;;8.20;6.50;;;11.10;99.90;;;;;;2065278;28;20304;-83
2023/09/15 04:11:32;;;;;;;8.17;6.00;;;11.10;99.90;;;;;;2064951;28;20226;-83
2023/09/15 04:12:36;;;;;;;10.05;6.05;;;11.20;99.90;;;;;;2064658;28;20230;-83
2023/09/15 04:13:36;;;;;;;7.43;6.60;;;11.20;99.90;;;;;;2057654;28;20286;-83
2023/09/15 04:14:37;;;;;;;6.97;5.57;;;11.20;99.90;;;;;;2062832;28;20210;-83
2023/09/15 04:15:39;;;;;;;7.40;6.17;;;11.20;99.90;;;;;;2056884;28;20259;-83
2023/09/15 04:16:39;;;;;;;7.72;6.47;;;11.10;99.90;;;;;;2063521;28;20234;-84
2023/09/15 04:17:41;;;;;;;7.60;6.83;;;11.20;99.90;;;;;;2061983;28;20218;-84
2023/09/15 04:18:42;;;;;;;8.77;7.38;;;11.20;99.90;;;;;;2060622;28;20236;-84
2023/09/15 04:19:42;;;;;;;7.30;6.50;;;11.20;99.90;;;;;;2056491;28;20325;-83
2023/09/15 04:20:43;;;;;;;7.73;6.40;;;11.20;99.90;;;;;;2064235;28;20368;-83
2023/09/15 04:21:44;;;;;;;7.70;6.70;;;11.20;99.90;;;;;;2072893;28;20256;-82
2023/09/15 04:22:44;;;;;;;7.40;6.30;;;11.10;99.90;;;;;;2072337;28;20263;-81
2023/09/15 04:23:45;;;;;;;8.90;6.80;;;11.20;99.90;;;;;;2072616;28;20301;-84
2023/09/15 04:24:46;;;;;;;8.43;7.03;;;11.20;99.90;;;;;;2056000;28;20223;-83
2023/09/15 04:25:48;;;;;;;7.10;6.17;;;11.20;99.90;;;;;;2056920;28;20719;-83
2023/09/15 04:26:48;;;;;;;7.03;6.25;;;11.20;99.90;;;;;;2056542;28;20219;-83
2023/09/15 04:27:49;;;;;;;8.03;6.33;;;11.20;99.90;;;;;;2056437;28;20235;-83
2023/09/15 04:28:50;;;;;;;7.47;5.60;;;11.20;99.90;;;;;;2064166;28;20241;-83
2023/09/15 04:29:55;;;;;;;6.23;5.63;;;11.20;99.90;;;;;;2056257;28;20255;-82
2023/09/15 04:30:56;;;;;;;7.03;5.72;;;11.20;99.90;;;;;;2065181;28;20229;-84
2023/09/15 04:31:56;;;;;;;7.60;6.73;;;11.10;99.90;;;;;;2070473;28;20253;-83
2023/09/15 04:32:58;;;;;;;7.80;6.27;;;11.00;99.90;;;;;;2063386;28;20614;-82
2023/09/15 04:33:59;;;;;;;9.15;6.80;;;11.10;99.90;;;;;;2055864;28;20227;-83
2023/09/15 04:35:00;;;;;;;8.63;6.37;;;11.10;99.90;;;;;;2062318;28;20253;-81
2023/09/15 04:36:01;;;;;;;9.77;7.37;;;11.10;99.90;;;;;;2063469;28;20226;-83
2023/09/15 04:37:01;;;;;;;10.37;6.77;;;11.00;99.90;;;;;;2055130;28;20215;-81
2023/09/15 04:38:02;;;;;;;8.07;7.20;;;11.00;99.90;;;;;;2063467;28;20190;-82
2023/09/15 04:39:04;;;;;;;7.50;6.00;;;11.00;99.90;;;;;;2065829;28;20234;-84
2023/09/15 04:40:06;;;;;;;8.77;6.68;;;11.00;99.90;;;;;;2070362;28;20422;-84
2023/09/15 04:41:07;;;;;;;6.93;6.25;;;11.10;99.90;;;;;;2064629;28;20189;-81
2023/09/15 04:42:10;;;;;;;6.20;5.60;;;11.10;99.90;;;;;;2071660;28;20181;-83
2023/09/15 04:43:12;;;;;;;8.93;5.13;;;11.10;99.90;;;;;;2063801;28;20193;-83
2023/09/15 04:44:13;;;;;;;6.22;5.28;;;11.10;99.90;;;;;;2056353;28;20183;-84
2023/09/15 04:45:13;;;;;;;7.40;4.97;;;11.10;99.90;;;;;;2063368;28;20186;-82
2023/09/15 04:46:17;;;;;;;8.23;6.20;;;11.20;99.90;;;;;;2064301;28;20264;-82
2023/09/15 04:47:34;;;;;;;6.82;5.47;;;11.10;99.90;;;;;;2064744;28;20233;-82
2023/09/15 04:48:34;;;;;;;7.15;5.50;;;11.10;99.90;;;;;;2057485;28;20261;-80
2023/09/15 04:49:35;;;;;;;6.33;5.70;;;11.00;99.90;;;;;;2055721;28;20711;-83
2023/09/15 04:50:39;;;;;;;7.13;5.70;;;11.00;99.90;;;;;;2064417;28;20227;-82
2023/09/15 04:51:40;;;;;;;7.10;6.28;;;10.90;99.90;;;;;;2079756;28;20258;-83
2023/09/15 04:52:41;;;;;;;6.82;6.13;;;10.80;99.90;;;;;;2063886;28;20249;-81
2023/09/15 04:53:41;;;;;;;9.13;7.20;;;10.90;99.90;;;;;;2056555;28;20284;-82
2023/09/15 04:54:42;;;;;;;8.93;6.90;;;10.80;99.90;;;;;;2063545;28;20244;-82
2023/09/15 04:55:43;;;;;;;9.63;6.90;;;10.90;99.90;;;;;;2063294;28;20312;-82
2023/09/15 04:56:44;;;;;;;9.40;7.37;;;10.90;99.90;;;;;;2062675;28;20234;-83
2023/09/15 04:57:46;;;;;;;7.70;6.90;;;10.80;99.90;;;;;;2063649;28;20331;-82
2023/09/15 04:58:48;;;;;;;8.07;7.00;;;10.80;99.90;;;;;;2063412;28;20292;-83
2023/09/15 04:59:49;;;;;;;9.63;7.85;;;10.80;99.90;;;;;;2071422;28;20251;-81
2023/09/15 05:00:50;;;;;;;8.43;7.53;;;10.90;99.90;;;;;;2063805;28;20257;-82
2023/09/15 05:01:51;;;;;;;9.27;8.03;;;11.00;99.90;;;;;;2055656;28;20711;-81
2023/09/15 05:02:52;;;;;;;10.90;7.50;;;11.10;99.90;;;;;;2055425;28;20227;-83
2023/09/15 05:03:52;;;;;;;10.67;8.33;;;11.10;99.90;;;;;;2071622;28;20309;-83
2023/09/15 05:04:54;;;;;;;10.63;8.17;;;11.10;99.90;;;;;;2064065;28;20373;-82
2023/09/15 05:05:55;;;;;;;10.25;8.10;;;11.20;99.90;;;;;;2055799;28;20230;-83
2023/09/15 05:06:56;;;;;;;7.95;7.15;;;11.20;99.90;;;;;;2056448;28;20227;-83
2023/09/15 05:07:56;;;;;;;8.63;7.23;;;11.30;99.90;;;;;;2063841;28;20245;-83
2023/09/15 05:08:57;;;;;;;7.93;6.93;;;11.30;99.90;;;;;;2063368;28;20233;-82
2023/09/15 05:09:58;;;;;;;8.60;6.90;;;11.20;99.90;;;;;;2064004;28;20650;-82
2023/09/15 05:10:59;;;;;;;7.47;6.40;;;11.30;99.90;;;;;;2055378;28;20231;-81
2023/09/15 05:12:00;;;;;;;8.17;7.37;;;11.40;99.90;;;;;;2064002;28;20730;-83
2023/09/15 05:13:05;;;;;;;8.10;6.60;;;11.40;99.90;;;;;;2071994;28;20311;-83
2023/09/15 05:14:06;;;;;;;7.85;6.68;;;11.40;99.90;;;;;;2066015;28;20768;-83
2023/09/15 05:15:07;;;;;;;9.37;7.60;;;11.40;99.90;;;;;;2059953;28;20229;-83
2023/09/15 05:16:08;;;;;;;9.15;6.85;;;11.40;99.90;;;;;;2065222;28;20214;-83
2023/09/15 05:17:09;;;;;;;8.38;6.93;;;11.50;99.90;;;;;;2064670;28;20182;-82
2023/09/15 05:18:10;;;;;;;9.83;7.33;;;11.50;99.90;;;;;;2055419;28;20223;-83
2023/09/15 05:19:10;;;;;;;7.03;6.00;;;11.50;99.90;;;;;;2047612;28;20241;-83
2023/09/15 05:20:11;;;;;;;6.63;6.00;;;11.50;99.90;;;;;;2063669;28;20182;-82
2023/09/15 05:21:12;;;;;;;7.30;6.30;;;11.50;99.90;;;;;;2072855;28;20725;-83
2023/09/15 05:22:13;;;;;;;6.23;5.63;;;11.40;99.90;;;;;;2064415;28;20186;-82
2023/09/15 05:23:13;;;;;;;8.67;5.90;;;11.50;99.90;;;;;;2064449;28;20179;-81
2023/09/15 05:24:14;;;;;;;5.97;4.97;;;11.50;99.90;;;;;;2064203;28;20181;-82